EST,Max TemperatureF,Mean TemperatureF,Min TemperatureF,Max Dew PointF,MeanDew PointF,Min DewpointF,Max Humidity, Mean Humidity, Min Humidity, Max Sea Level PressureIn, Mean Sea Level PressureIn, Min Sea Level PressureIn, Max VisibilityMiles, Mean VisibilityMiles, Min VisibilityMiles, Max Wind SpeedMPH, Mean Wind SpeedMPH, Max Gust SpeedMPH,PrecipitationIn, CloudCover, Events, WindDirDegrees
2012-11-1,46,44,42,43,37,32,93,75,61,29.56,29.53,29.50,10,10,10,9,2,,0.02,8,Rain,266
2012-11-2,45,42,39,38,33,29,82,67,53,29.69,29.60,29.55,10,10,9,13,9,21,0.00,8,,274
2012-11-3,44,40,37,32,28,26,76,63,51,29.90,29.79,29.69,10,10,10,15,8,23,0.00,8,,276
2012-11-4,41,38,35,27,26,25,70,62,55,29.99,29.95,29.89,10,10,10,13,9,18,0.00,8,,274
2012-11-5,36,30,21,22,19,13,85,59,43,30.18,30.06,29.98,10,10,10,9,4,,0.00,6,,287
2012-11-6,41,29,17,20,17,13,85,68,32,30.25,30.20,30.17,10,10,9,5,1,,0.00,0,,257
2012-11-7,37,32,28,20,15,4,61,47,25,30.17,30.04,29.90,10,10,10,13,7,21,0.00,5,,80
2012-11-8,36,33,30,28,24,19,81,66,59,29.92,29.86,29.79,10,8,2,13,9,25,0.00,8,Snow,273
2012-11-9,46,38,30,34,25,17,70,57,30,30.15,30.07,29.91,10,10,9,12,7,22,0.00,4,,281
2012-11-10,51,43,35,34,30,27,86,61,41,30.43,30.30,30.15,10,9,6,9,5,,0.00,4,,279
2012-11-11,66,56,46,39,36,28,71,56,36,30.45,30.42,30.36,10,10,7,14,6,,0.00,3,,92
2012-11-12,68,57,46,50,43,38,83,56,36,30.42,30.31,30.15,10,10,10,12,8,38,0.00,2,,128
2012-11-13,64,50,34,50,35,23,93,78,53,30.47,30.30,30.12,10,7,1,18,9,34,0.53,7,Rain,271
2012-11-14,44,34,23,26,22,19,89,70,42,30.58,30.53,30.48,10,10,10,8,1,,0.00,0,,260
2012-11-15,41,30,19,25,20,16,88,71,43,30.51,30.43,30.34,10,10,8,7,1,,0.00,0,,248
2012-11-16,37,29,21,25,22,17,85,78,60,30.50,30.40,30.34,10,10,8,7,2,,0.00,0,,279
2012-11-17,45,32,19,27,21,14,89,75,47,30.70,30.63,30.50,10,9,6,5,1,,0.00,0,,293
2012-11-18,48,33,18,25,19,13,85,71,29,30.75,30.68,30.63,10,9,6,7,1,,0.00,0,,75
2012-11-19,50,34,19,25,18,8,89,68,19,30.62,30.46,30.30,10,9,5,5,0,,0.00,0,,156
2012-11-20,48,34,19,27,22,16,88,71,34,30.28,30.21,30.14,10,10,8,5,0,,0.00,0,,257
2012-11-21,52,39,26,26,23,20,85,71,28,30.29,30.24,30.18,10,10,10,8,1,,0.00,0,,128
2012-11-22,55,38,21,29,24,18,88,71,30,30.31,30.23,30.13,10,10,8,7,0,,0.00,0,,115
2012-11-23,59,44,28,41,30,24,89,61,28,30.10,29.86,29.61,10,10,6,12,4,17,0.02,2,Rain,112
2012-11-24,46,38,30,37,20,13,71,52,41,29.72,29.66,29.61,10,10,5,23,13,33,0.00,7,Snow,272
2012-11-25,33,30,26,21,18,13,69,58,48,29.87,29.81,29.74,10,10,9,18,11,31,0.00,7,Snow,274
2012-11-26,41,36,28,24,21,19,73,58,41,30.25,30.06,29.87,10,9,5,20,9,25,0.00,7,Snow,267
2012-11-27,35,30,26,30,26,21,93,84,67,30.30,30.25,30.23,10,5,0,4,0,,0.00,8,Fog-Snow,279
2012-11-28,36,30,23,25,21,16,93,73,44,30.24,30.20,30.14,10,7,0,13,2,24,0.00,7,Fog,266
2012-11-29,43,38,32,25,20,13,75,53,30,30.26,30.20,30.16,10,10,4,16,11,24,0.00,5,Snow,263
2012-11-30,39,33,27,23,12,2,72,50,32,30.52,30.42,30.22,10,10,10,13,6,16,0.00,8,,292